Tiempo atmosférico en la estación meteorológica de Fuente De Piedra, Málaga (423 m.)



Fecha
DESCASC
Temp. máxima en grados centígrados (hora)
DESCASC
Temp. mínima en grados centígrados (hora)
DESCASC
Temp. media en grados centígrados
DESCASC
Racha de viento máxima en m/sg (hora)
DESCASC
Velocidad máxima media en intervalos de 10 minutos(hora)
DESCASC
Precipitaciones diarias en mm
DESCASC
Precipitaciones de 00:00 a 06:00 en mm
DESCASC
Precipitaciones de 06:00 a 12:00 en mm
DESCASC
Precipitaciones de 12:00 a 18:00 en mm
DESCASC
Precipitaciones de 18:00 a 24:00 en mm
DESCASC
02-04-2020 13.1 (18:20) 6 (09:20) 9.6 11.39 (07:10) 6.67 (16:50) 6 1 5 0 0
01-04-2020 16.7 (17:30) 9.7 (08:10) 13.2 11.67 (20:10) 7.22 (20:20) 0 0 0 0 0
31-03-2020 16.7 (15:20) 9.6 (00:00) 13.2 13.61 (03:00) 9.44 (15:50) 12.6 6.6 4.6 0.8 0.6
30-03-2020 18.2 (14:10) 9.2 (00:00) 13.7 6.39 (16:40) 3.89 (22:00) 3.4 0 0 2.2 1.2
29-03-2020 19.3 (16:30) 6.9 (00:00) 13.1 5.83 (03:50) 3.61 (20:20) 0 0 0 0 0
28-03-2020 16.5 (13:30) 5.9 (00:00) 11.2 10.56 (14:50) 7.5 (15:00) 0 0 0 0 0
27-03-2020 17.1 (13:50) 6.5 (00:00) 11.8 11.94 (11:50) 8.61 (11:50) 0 0 0 0 0
26-03-2020 18.8 (17:00) 8.8 (00:00) 13.8 11.39 (16:10) 7.22 (20:50) 0 0 0 0 0
25-03-2020 14.4 (17:10) 9.6 (00:00) 12 7.78 (20:10) 5.56 (20:10) 1.6 0 0.6 0.4 0.6
24-03-2020 17.6 (13:30) 8.2 (00:00) 12.9 6.39 (13:00) 3.89 (11:00) 2.2 1.4 0.8 0 0
23-03-2020 14.7 (13:50) 3.4 (00:00) 9 7.78 (17:20) 5.56 (15:20) 3.6 0 0 0.6 3
22-03-2020 13.8 (12:50) 7.4 (08:00) 10.6 8.33 (15:00) 4.44 (13:10) 2.2 0.8 0 1.4 0
21-03-2020 14.2 (14:00) 7.4 (00:00) 10.8 11.39 (03:10) 7.22 (00:40) 21.2 16.4 0 2.2 2.6
20-03-2020 18.2 (15:50) 10.6 (00:00) 14.4 12.22 (10:30) 8.33 (10:40) 0.2 0 0 0 0.2
19-03-2020 16.6 (12:30) 11.4 (00:00) 14 13.61 (22:10) 9.44 (15:30) 0 0 0 0 0
18-03-2020 19.9 (15:30) 6.8 (00:00) 13.3 12.78 (22:30) 8.89 (16:30) 0 0 0 0 0
17-03-2020 15.7 (13:50) 6.1 (00:00) 10.9 12.78 (11:10) 8.89 (14:00) 1.4 1.2 0.2 0 0
16-03-2020 13.4 (16:00) 6.4 (00:00) 9.9 13.06 (13:40) 7.5 (13:50) 0.2 0 0 0 0.2
15-03-2020 19.7 (15:50) 11.2 (00:00) 15.5 12.22 (12:40) 8.61 (12:40) 0 0 0 0 0
14-03-2020 24.1 (16:20) 6.4 (00:00) 15.3 6.39 (17:20) 3.89 (18:20) 0 0 0 0 0
13-03-2020 22.3 (15:50) 6.8 (07:20) 14.5 6.67 (16:40) 4.72 (16:40) 0 0 0 0 0
12-03-2020 28.8 (16:00) 11.5 (00:00) 20.1 10 (13:00) 6.67 (13:00) 0 0 0 0 0
11-03-2020 27.7 (14:30) 6.1 (00:00) 16.9 12.22 (13:30) 8.89 (13:30) 0 0 0 0 0
10-03-2020 24 (15:40) 5.9 (00:00) 15 9.44 (13:50) 6.39 (13:50) 0 0 0 0 0
09-03-2020 20.4 (14:50) 3.5 (00:00) 11.9 7.78 (16:40) 5.28 (16:10) 0 0 0 0 0
08-03-2020 23.2 (15:50) 0.2 (00:00) 11.7 6.94 (17:00) 4.17 (16:50) 0 0 0 0 0
07-03-2020 18.1 (14:40) 1.3 (00:00) 9.7 11.11 (13:10) 5.83 (13:20) 0 0 0 0 0
06-03-2020 16 (17:20) 4.6 (00:00) 10.3 13.89 (16:50) 9.17 (17:00) 0 0 0 0 0
05-03-2020 16.4 (12:30) 4.1 (00:00) 10.2 11.39 (12:30) 6.94 (12:40) 0 0 0 0 0

Gráficas

Temp. máximas Temp. mínimas Temp. medias Precipitaciones Rachas de viento máximas Velocidades máximas media en intervalos de 10 minutos

Datos horarios

Fecha y hora oficial Temperatura (ºC) Velocidad del viento (km/h) Dirección del viento Racha (km/h) Dirección de racha Precipitación (mm) Presión (hPa) Tendencia (hPa) Humedad (%)
2020-04-03 23:00:00 10.4 10 Sudeste 20 Sur 0 -- -- 77
2020-04-03 22:00:00 11.5 14 Sur 27 Sur 0 -- -- 69
2020-04-03 21:00:00 12.6 19 Sur 35 Sur 0 -- -- 61
2020-04-03 20:00:00 14.3 21 Sur 41 Sur 0 -- -- 56
2020-04-03 19:00:00 15.8 30 Sur 42 Sur 0 -- -- 53
2020-04-03 18:00:00 17.6 23 Sur 37 Sur 0 -- -- 51
2020-04-03 17:00:00 17.6 22 Sur 34 Sur 0 -- -- 52
2020-04-03 16:00:00 18.3 23 Sur 34 Sur 0 -- -- 51
2020-04-03 15:00:00 17.8 7 Sudoeste 17 Sudoeste 0 -- -- 52
2020-04-03 14:00:00 17.8 6 Sur 18 Sudoeste 0 -- -- 50
2020-04-03 13:00:00 16.7 9 Sudoeste 16 Sudoeste 0 -- -- 60
2020-04-03 12:00:00 14.9 3 Sudoeste 10 Sudeste 0 -- -- 65
2020-04-03 11:00:00 11.9 4 Oeste 6 Oeste 0 -- -- 81
2020-04-03 10:00:00 9 2 Este 6 Sur 0 -- -- 95
2020-04-03 09:00:00 5.5 2 Sur 4 Sur 0 -- -- 96
2020-04-03 08:00:00 4.6 2 Sudoeste 3 Sudoeste 0 -- -- 95
2020-04-03 07:00:00 4.7 2 Este 5 Este 0 -- -- 94
2020-04-03 06:00:00 5.3 2 Sudeste 6 Sur 0 -- -- 94
2020-04-03 05:00:00 5.6 3 Noroeste 10 Este 0 -- -- 93
2020-04-03 04:00:00 6.1 3 Este 6 Norte 0 -- -- 94
2020-04-03 03:00:00 6.2 0 Calma 5 Sur 0 -- -- 92
2020-04-03 02:00:00 7 4 Sudeste 8 Sudeste 0 -- -- 92
2020-04-03 01:00:00 7.3 6 Sudeste 8 Sudeste 0 -- -- 90
2020-04-03 00:00:00 8.3 4 Noroeste 7 Noroeste 0 -- -- 86
2020-04-02 23:00:00 8.5 4 Noroeste 9 Noroeste 0 -- -- 84
2020-04-02 22:00:00 8.8 5 Noroeste 14 Noroeste 0 -- -- 82
2020-04-02 21:00:00 10 8 Noroeste 20 Norte 0 -- -- 75
2020-04-02 20:00:00 11.8 13 Norte 32 Noroeste 0 -- -- 66
2020-04-02 19:00:00 12.5 17 Noroeste 32 Noroeste 0 -- -- 65
2020-04-02 18:00:00 12.5 19 Noroeste 33 Noroeste 0 -- -- 68
2020-04-02 17:00:00 10.9 22 Noroeste 36 Noroeste 0 -- -- 75
2020-04-02 16:00:00 11.4 22 Noroeste 33 Oeste 0 -- -- 70
2020-04-02 15:00:00 9 13 Oeste 32 Oeste 0 -- -- 83
2020-04-02 14:00:00 11 13 Sudoeste 20 Sudoeste 0 -- -- 63
2020-04-02 13:00:00 10.9 9 Sur 17 Sur 0 -- -- 69
2020-04-02 12:00:00 10.5 5 Sudoeste 13 Sur 0 -- -- 71
2020-04-02 11:00:00 10 6 Sur 15 Sudeste 0 -- -- 70
2020-04-02 10:00:00 7.5 13 Este 27 Este 0 -- -- 87
2020-04-02 09:00:00 6.6 8 Sudeste 21 Este 0.2 -- -- 90
2020-04-02 08:00:00 6.9 12 Sur 41 Oeste 1 -- -- 86
2020-04-02 07:00:00 8.4 12 Oeste 28 Oeste 3.8 -- -- 91
2020-04-02 06:00:00 8.8 5 Sur 8 Sudeste 0.4 -- -- 91
2020-04-02 05:00:00 8.8 5 Sudeste 7 Este 0.2 -- -- 90
2020-04-02 04:00:00 9 4 Sur 6 Sudoeste 0.4 -- -- 88
2020-04-02 03:00:00 8.8 3 Noroeste 6 Sudeste 0 -- -- 87
2020-04-02 02:00:00 8.6 3 Norte 10 Sudeste 0 -- -- 85
2020-04-02 01:00:00 8.7 7 Sudeste 10 Sudeste 0 -- -- 84
2020-04-02 00:00:00 9.7 5 Sudeste 14 Oeste 0 -- -- 78
2020-04-01 23:00:00 10.9 8 Sudoeste 21 Oeste 0 -- -- 72
2020-04-01 22:00:00 11 7 Oeste 33 Oeste 0 -- -- 71
2020-04-01 21:00:00 10.7 14 Oeste 42 Noroeste 0 -- -- 72
2020-04-01 20:00:00 12.9 13 Oeste 30 Oeste 0 -- -- 69
2020-04-01 19:00:00 14.4 19 Noroeste 38 Oeste 0 -- -- 65
2020-04-01 18:00:00 15.9 23 Oeste 36 Oeste 0 -- -- 47
2020-04-01 17:00:00 16.6 22 Oeste 32 Oeste 0 -- -- 45
2020-04-01 16:00:00 15.6 16 Oeste 31 Oeste 0 -- -- 53
2020-04-01 15:00:00 15.1 11 Oeste 25 Oeste 0 -- -- 57
2020-04-01 14:00:00 13.7 8 Oeste 22 Noroeste 0 -- -- 63
2020-04-01 13:00:00 13.5 12 Noroeste 24 Oeste 0 -- -- 67
2020-04-01 12:00:00 12.1 6 Oeste 20 Oeste 0 -- -- 77
2020-04-01 11:00:00 11.7 5 Oeste 14 Noroeste 0 -- -- 83
2020-04-01 10:00:00 10.7 6 Noroeste 17 Noroeste 0 -- -- 86
2020-04-01 09:00:00 9.8 0 Calma 10 Noroeste 0 -- -- 92
2020-04-01 08:00:00 9.9 6 Noroeste 11 Noroeste 0 -- -- 93
2020-04-01 07:00:00 10.2 0 Calma 6 Norte 0 -- -- 93
2020-04-01 06:00:00 10.2 3 Norte 5 Este 0 -- -- 91
2020-04-01 05:00:00 10.3 3 Sudeste 6 Oeste 0 -- -- 89
2020-04-01 04:00:00 10.4 3 Oeste 10 Oeste 0 -- -- 90
2020-04-01 03:00:00 10.9 9 Oeste 16 Oeste 0 -- -- 88
2020-04-01 02:00:00 11.3 3 Noroeste 14 Oeste 0 -- -- 86
2020-04-01 01:00:00 11.6 8 Sudoeste 14 Sudoeste 0 -- -- 88
2020-04-01 00:00:00 11.6 5 Sur 14 Sur 0 -- -- 89
2020-03-31 23:00:00 12 12 Sur 21 Sudoeste 0 -- -- 84
2020-03-31 22:00:00 12.4 12 Sur 23 Sudoeste 0 -- -- 84
2020-03-31 21:00:00 12.7 6 Sudoeste 27 Sur 0 -- -- 83
2020-03-31 20:00:00 13.7 17 Sur 33 Sur 0 -- -- 83
2020-03-31 19:00:00 14.2 20 Sur 36 Sur 0.6 -- -- 87
2020-03-31 18:00:00 13.5 25 Sur 40 Sur 0.2 -- -- 87
2020-03-31 17:00:00 13.8 29 Sur 45 Sur 0.6 -- -- 88
2020-03-31 16:00:00 16 33 Sur 48 Sur 0 -- -- 73
2020-03-31 15:00:00 16 31 Sur 41 Sur 0 -- -- 74
2020-03-31 14:00:00 13.6 26 Sur 38 Sur 0 -- -- 85
2020-03-31 13:00:00 14.5 23 Sur 35 Sur 0 -- -- 80
2020-03-31 12:00:00 13.1 15 Sur 28 Sur 0 -- -- 91
2020-03-31 11:00:00 11.8 8 Sur 13 Sur 1.8 -- -- 96
2020-03-31 10:00:00 10.7 8 Sudoeste 23 Sudoeste 1.4 -- -- 94
2020-03-31 09:00:00 10.4 15 Sudoeste 24 Sudoeste 1 -- -- 94
2020-03-31 08:00:00 10.1 15 Sur 33 Sur 0.4 -- -- 93
2020-03-31 07:00:00 10 28 Sur 41 Sudeste 0 -- -- 92
2020-03-31 06:00:00 9.6 15 Sur 35 Sur 0 -- -- 92
2020-03-31 05:00:00 10 21 Sur 39 Sudeste 0.6 -- -- 92
2020-03-31 04:00:00 10.4 22 Sur 45 Sur 4 -- -- 93
2020-03-31 03:00:00 11 31 Sur 49 Sur 1.8 -- -- 91
2020-03-31 02:00:00 10.8 11 Sudeste 19 Sudeste 0 -- -- 93
2020-03-31 01:00:00 10.8 4 Sudeste 7 Nordeste 0.2 -- -- 95
2020-03-31 00:00:00 10.8 7 Este 13 Este 0.2 -- -- 94
2020-03-30 23:00:00 10.8 7 Norte 21 Nordeste 0.6 -- -- 94
2020-03-30 22:00:00 11.2 14 Norte 20 Norte 0.2 -- -- 91
2020-03-30 21:00:00 12.3 5 Norte 14 Noroeste 0 -- -- 90
2020-03-30 20:00:00 13.1 6 Norte 9 Norte 0 -- -- 89
2020-03-30 19:00:00 13.3 3 Este 7 Oeste 0.2 -- -- 86
2020-03-30 18:00:00 13 3 Oeste 21 Oeste 1.2 -- -- 85
2020-03-30 17:00:00 14.2 8 Oeste 23 Noroeste 1 -- -- 78
2020-03-30 16:00:00 17.7 6 Oeste 14 Oeste 0 -- -- 56
2020-03-30 15:00:00 17.6 6 Sudoeste 17 Oeste 0 -- -- 55
2020-03-30 14:00:00 17.5 5 Sudeste 11 Sudeste 0 -- -- 61
2020-03-30 13:00:00 15.1 3 Sudoeste 8 Sur 0 -- -- 72
2020-03-30 12:00:00 14.2 3 Sudeste 11 Este 0 -- -- 77
2020-03-30 11:00:00 12 2 Sudeste 6 Sudeste 0 -- -- 90
2020-03-30 10:00:00 11.4 2 Oeste 6 Norte 0 -- -- 93
2020-03-30 09:00:00 10.8 4 Nordeste 6 Nordeste 0 -- -- 94
2020-03-30 08:00:00 10.1 4 Norte 6 Norte 0 -- -- 93
2020-03-30 07:00:00 9.2 5 Nordeste 6 Nordeste 0 -- -- 92
2020-03-30 06:00:00 10.6 2 Este 4 Este 0 -- -- 91
2020-03-30 05:00:00 11.2 0 Calma 3 Sudoeste 0 -- -- 90
2020-03-30 04:00:00 11.4 4 Noroeste 17 Noroeste 0 -- -- 90
2020-03-30 03:00:00 11.7 12 Noroeste 21 Noroeste 0 -- -- 88
2020-03-30 02:00:00 12.5 3 Nordeste 9 Sur 0 -- -- 82
2020-03-30 01:00:00 13.4 5 Sur 16 Sudoeste 0 -- -- 77
2020-03-30 00:00:00 13.8 4 Sudoeste 9 Oeste 0 -- -- 76
2020-03-29 23:00:00 14 3 Oeste 14 Sudoeste 0 -- -- 69
2020-03-29 22:00:00 14 6 Sur 13 Sur 0 -- -- 65
2020-03-29 21:00:00 15.4 8 Sur 19 Sur 0 -- -- 59
2020-03-29 20:00:00 16.8 10 Sur 17 Sur 0 -- -- 50
2020-03-29 19:00:00 17.7 12 Sur 20 Sudoeste 0 -- -- 46
2020-03-29 18:00:00 18.6 5 Oeste 15 Oeste 0 -- -- 41
2020-03-29 17:00:00 18.7 4 Noroeste 14 Oeste 0 -- -- 38
2020-03-29 16:00:00 18.6 7 Sur 13 Noroeste 0 -- -- 40
2020-03-29 15:00:00 18.3 6 Noroeste 16 Sudoeste 0 -- -- 46
2020-03-29 14:00:00 17.3 9 Sudoeste 15 Sudoeste 0 -- -- 53
2020-03-29 13:00:00 16.2 5 Oeste 12 Oeste 0 -- -- 61
2020-03-29 12:00:00 14.4 4 Sudoeste 9 Sudoeste 0 -- -- 65
2020-03-29 11:00:00 12.1 4 Sudoeste 8 Sudoeste 0 -- -- 79
2020-03-29 10:00:00 9.8 2 Sudoeste 4 Sudoeste 0 -- -- 90
2020-03-29 09:00:00 7 0 Calma 4 Este 0 -- -- 93
2020-03-29 08:00:00 7.5 3 Norte 5 Norte 0 -- -- 91
2020-03-29 07:00:00 8.7 4 Sur 8 Sudoeste 0 -- -- 89
2020-03-29 06:00:00 9.2 2 Sur 9 Sur 0 -- -- 88
2020-03-29 05:00:00 9.7 3 Sudeste 15 Sudoeste 0 -- -- 87
2020-03-29 03:00:00 10.2 12 Sur 20 Sur 0 -- -- 86
2020-03-29 01:00:00 10 10 Sur 17 Sur 0 -- -- 86
2020-03-29 00:00:00 9.5 8 Sur 14 Sur 0 -- -- 88
2020-03-28 23:00:00 9.9 9 Sur 18 Sur 0 -- -- 86
2020-03-28 22:00:00 10 11 Sur 17 Sur 0 -- -- 85
2020-03-28 21:00:00 10.4 11 Sur 18 Sur 0 -- -- 82
2020-03-28 20:00:00 11.1 12 Sur 24 Sur 0 -- -- 78
2020-03-28 19:00:00 13.1 14 Sur 30 Sudoeste 0 -- -- 70
2020-03-28 18:00:00 14.6 17 Sudoeste 32 Sur 0 -- -- 67
2020-03-28 17:00:00 15 23 Sur 36 Sur 0 -- -- 63
2020-03-28 16:00:00 15.6 19 Sur 38 Sur 0 -- -- 63
2020-03-28 15:00:00 15.1 27 Sur 38 Sur 0 -- -- 67
2020-03-28 14:00:00 15.7 25 Sur 37 Sur 0 -- -- 67
2020-03-28 13:00:00 16.3 18 Sur 28 Sur 0 -- -- 62
2020-03-28 12:00:00 15.3 19 Sur 31 Sur 0 -- -- 67
2020-03-28 11:00:00 15 15 Sur 25 Sudeste 0 -- -- 68
2020-03-28 10:00:00 11.3 3 Sur 9 Sudoeste 0 -- -- 94
2020-03-28 09:00:00 8.4 2 Este 6 Norte 0 -- -- 96
2020-03-28 08:00:00 6 3 Nordeste 5 Nordeste 0 -- -- 95
2020-03-28 07:00:00 5.9 4 Nordeste 6 Norte 0 -- -- 94
2020-03-28 06:00:00 6.6 0 Calma 6 Sudoeste 0 -- -- 93
2020-03-28 05:00:00 6.4 5 Norte 7 Norte 0 -- -- 94
2020-03-28 04:00:00 7.6 0 Calma 5 Este 0 -- -- 93
2020-03-28 03:00:00 7.5 2 Nordeste 5 Este 0 -- -- 91
2020-03-28 02:00:00 8.6 4 Sur 7 Sur 0 -- -- 90
2020-03-28 01:00:00 9.2 0 Calma 12 Sur 0 -- -- 90
2020-03-28 00:00:00 9.7 9 Sur 12 Sur 0 -- -- 89
2020-03-27 23:00:00 10.1 3 Sur 7 Sur 0 -- -- 88
2020-03-27 22:00:00 10.4 3 Oeste 9 Sudoeste 0 -- -- 86
2020-03-27 21:00:00 10.9 4 Sur 9 Sudoeste 0 -- -- 83
2020-03-27 20:00:00 11.8 5 Sudoeste 18 Sudoeste 0 -- -- 80
2020-03-27 19:00:00 13.3 14 Sur 30 Sur 0 -- -- 73
2020-03-27 18:00:00 14.4 20 Sur 31 Sur 0 -- -- 67
2020-03-27 17:00:00 15.3 21 Sur 36 Sur 0 -- -- 65
2020-03-27 16:00:00 15.9 25 Sur 43 Sur 0 -- -- 64
2020-03-27 15:00:00 16.8 24 Sur 36 Sur 0 -- -- 60
2020-03-27 14:00:00 16.9 27 Sur 40 Sudeste 0 -- -- 60
2020-03-27 13:00:00 16.5 25 Sur 42 Sur 0 -- -- 60
2020-03-27 12:00:00 16.4 27 Sur 43 Sur 0 -- -- 57
2020-03-27 11:00:00 14.8 26 Sur 41 Sur 0 -- -- 65
2020-03-27 10:00:00 13.6 24 Sur 38 Sur 0 -- -- 71
2020-03-27 09:00:00 12 22 Sur 34 Sur 0 -- -- 82
2020-03-27 08:00:00 8.5 10 Sudoeste 17 Sur 0 -- -- 95
2020-03-27 07:00:00 6.6 5 Sudeste 11 Sur 0 -- -- 93
2020-03-27 06:00:00 7.2 11 Sur 17 Sur 0 -- -- 93
2020-03-27 05:00:00 7.4 5 Sur 7 Sur 0 -- -- 91
2020-03-27 04:00:00 8.4 3 Sur 14 Sur 0 -- -- 90
2020-03-27 03:00:00 9.1 10 Sur 13 Sudeste 0 -- -- 83
2020-03-27 02:00:00 11.2 4 Sur 24 Oeste 0 -- -- 78
2020-03-27 01:00:00 10.6 5 Este 14 Oeste 0 -- -- 83
2020-03-27 00:00:00 11.9 12 Oeste 30 Oeste 0 -- -- 76
2020-03-26 23:00:00 12.3 13 Oeste 33 Oeste 0 -- -- 74
2020-03-26 22:00:00 13.2 20 Oeste 30 Oeste 0 -- -- 70
2020-03-26 21:00:00 13.9 22 Oeste 40 Oeste 0 -- -- 69
2020-03-26 20:00:00 14.8 16 Oeste 36 Oeste 0 -- -- 65
2020-03-26 19:00:00 16.7 19 Oeste 38 Oeste 0 -- -- 57
2020-03-26 18:00:00 18.1 21 Oeste 39 Oeste 0 -- -- 49
2020-03-26 17:00:00 18.8 22 Noroeste 41 Noroeste 0 -- -- 44
2020-03-26 16:00:00 18.7 21 Oeste 36 Oeste 0 -- -- 51
2020-03-26 15:00:00 18.2 26 Oeste 39 Oeste 0 -- -- 56
2020-03-26 14:00:00 17.8 22 Oeste 36 Oeste 0 -- -- 60
2020-03-26 13:00:00 16.9 14 Oeste 27 Oeste 0 -- -- 68
2020-03-26 12:00:00 14.8 12 Noroeste 23 Oeste 0 -- -- 73
2020-03-26 11:00:00 13.3 11 Oeste 21 Noroeste 0 -- -- 80
2020-03-26 10:00:00 12.5 8 Noroeste 19 Oeste 0 -- -- 83
2020-03-26 09:00:00 11.3 6 Oeste 14 Sudeste 0 -- -- 90
2020-03-26 08:00:00 10.7 6 Sur 17 Oeste 0 -- -- 91
2020-03-26 07:00:00 10.4 4 Noroeste 10 Norte 0 -- -- 93
2020-03-26 06:00:00 9.8 5 Sur 15 Sudoeste 0 -- -- 93
2020-03-26 05:00:00 9.6 5 Sur 14 Sur 0 -- -- 94
2020-03-26 04:00:00 9.2 9 Sur 15 Sur 0 -- -- 95
2020-03-26 03:00:00 8.9 6 Sur 8 Sur 0 -- -- 94
2020-03-26 02:00:00 8.8 5 Sur 14 Sudoeste 0 -- -- 94
2020-03-26 01:00:00 9.1 6 Sur 12 Sudoeste 0 -- -- 93
2020-03-26 00:00:00 9.6 10 Sudoeste 19 Sudoeste 0 -- -- 93
2020-03-25 23:00:00 9.8 11 Sur 17 Sudoeste 0 -- -- 93
2020-03-25 22:00:00 9.7 9 Sur 17 Sur 0 -- -- 93
2020-03-25 21:00:00 10 9 Sur 28 Sudoeste 0.2 -- -- 91
2020-03-25 20:00:00 11.1 17 Sudoeste 27 Sudoeste 0.4 -- -- 87
2020-03-25 19:00:00 12.5 15 Sudoeste 21 Sudoeste 0 -- -- 79
2020-03-25 18:00:00 13.5 12 Sur 20 Sur 0 -- -- 77
2020-03-25 17:00:00 14.2 14 Sur 24 Sur 0 -- -- 74
2020-03-25 16:00:00 13.4 12 Sur 22 Sur 0 -- -- 79
2020-03-25 15:00:00 12.3 13 Sur 20 Sur 0 -- -- 85
2020-03-25 14:00:00 10.3 10 Sur 20 Sur 0.2 -- -- 91
2020-03-25 13:00:00 10 11 Sur 19 Sur 0.2 -- -- 92
2020-03-25 12:00:00 10 11 Sur 24 Sur 0.2 -- -- 92
2020-03-25 11:00:00 10 17 Sur 25 Sur 0 -- -- 92
2020-03-25 10:00:00 10.8 12 Sur 19 Sur 0.4 -- -- 90
2020-03-25 09:00:00 11.5 5 Noroeste 9 Noroeste 0 -- -- 94
2020-03-25 08:00:00 11.2 0 Calma 11 Oeste 0 -- -- 95
2020-03-25 07:00:00 11.1 7 Oeste 13 Oeste 0 -- -- 94
2020-03-25 06:00:00 10.7 4 Nordeste 7 Nordeste 0 -- -- 94
2020-03-25 05:00:00 10.5 3 Norte 5 Sur 0 -- -- 94
2020-03-25 04:00:00 10.5 2 Noroeste 5 Norte 0 -- -- 93
2020-03-25 03:00:00 10.7 3 Nordeste 8 Sur 0 -- -- 93
2020-03-25 02:00:00 11.1 7 Sur 8 Sur 0 -- -- 92
2020-03-25 01:00:00 11.1 3 Este 7 Norte 0 -- -- 92
2020-03-25 00:00:00 11.2 3 Noroeste 8 Sudeste 0 -- -- 91
2020-03-24 23:00:00 11.4 5 Sudeste 13 Sur 0 -- -- 90
2020-03-24 22:00:00 11.5 11 Sur 14 Sur 0 -- -- 89
2020-03-24 21:00:00 12.3 6 Sudeste 8 Este 0 -- -- 86
2020-03-24 20:00:00 12.9 2 Nordeste 9 Sur 0 -- -- 85
2020-03-24 19:00:00 14.3 7 Sudeste 17 Sur 0 -- -- 81
2020-03-24 18:00:00 15.4 12 Sur 19 Sur 0 -- -- 76
2020-03-24 17:00:00 17.6 3 Sudeste 12 Noroeste 0 -- -- 59
2020-03-24 16:00:00 16.9 8 Noroeste 17 Noroeste 0 -- -- 66
2020-03-24 15:00:00 16.6 10 Noroeste 19 Norte 0 -- -- 66
2020-03-24 14:00:00 17.4 6 Norte 18 Norte 0 -- -- 62
2020-03-24 13:00:00 16.6 12 Norte 23 Norte 0 -- -- 66
2020-03-24 12:00:00 15.5 13 Norte 20 Nordeste 0 -- -- 68
2020-03-24 11:00:00 13.6 14 Nordeste 20 Nordeste 0 -- -- 71
2020-03-24 10:00:00 11 2 Norte 7 Norte 0 -- -- 95
2020-03-24 09:00:00 9.8 0 Calma 10 Norte 0 -- -- 96
2020-03-24 08:00:00 8.7 7 Norte 9 Nordeste 0 -- -- 96
2020-03-24 07:00:00 8.7 2 Sudeste 10 Norte 0.8 -- -- 96
2020-03-24 06:00:00 8.5 0 Calma 11 Norte 0.4 -- -- 96
2020-03-24 05:00:00 8.5 8 Norte 13 Norte 0 -- -- 95
2020-03-24 04:00:00 8.6 11 Nordeste 15 Nordeste 0 -- -- 95
2020-03-24 03:00:00 8.7 10 Norte 15 Norte 0.4 -- -- 95
2020-03-24 02:00:00 8.7 8 Norte 11 Nordeste 0.4 -- -- 95
2020-03-24 01:00:00 8.6 4 Sudoeste 9 Nordeste 0.2 -- -- 94
2020-03-24 00:00:00 8.2 4 Nordeste 15 Nordeste 0 -- -- 93
2020-03-23 23:00:00 8.7 10 Nordeste 17 Nordeste 0.4 -- -- 90
2020-03-23 22:00:00 9 9 Nordeste 19 Este 0.4 -- -- 91
2020-03-23 21:00:00 9 5 Este 11 Este 1.2 -- -- 92
2020-03-23 20:00:00 9.1 5 Sudeste 12 Este 0.6 -- -- 91
2020-03-23 19:00:00 9.3 6 Sudeste 21 Este 0.4 -- -- 88
2020-03-23 18:00:00 9.6 17 Este 28 Este 0 -- -- 87
2020-03-23 17:00:00 9.4 12 Este 28 Sudeste 0.6 -- -- 87
2020-03-23 16:00:00 11.6 16 Sur 28 Sur 0 -- -- 79
2020-03-23 15:00:00 14.1 15 Sudeste 27 Sudeste 0 -- -- 59
2020-03-23 14:00:00 14.5 8 Sudeste 21 Sudeste 0 -- -- 63
2020-03-23 13:00:00 14.1 5 Sudoeste 11 Sudeste 0 -- -- 63
2020-03-23 12:00:00 13.9 5 Sudeste 20 Noroeste 0 -- -- 63
2020-03-23 11:00:00 12.4 6 Sudoeste 10 Oeste 0 -- -- 75
2020-03-23 10:00:00 9.5 3 Norte 4 Norte 0 -- -- 94
2020-03-23 09:00:00 5.9 2 Sudoeste 5 Sur 0 -- -- 96
2020-03-23 08:00:00 3.9 0 Calma 6 Norte 0 -- -- 96
2020-03-23 07:00:00 4.5 2 Sur 3 Noroeste 0 -- -- 95
2020-03-23 06:00:00 4.7 0 Calma 3 Sudeste 0 -- -- 94
2020-03-23 05:00:00 4.8 2 Sudeste 3 Sudeste 0 -- -- 95
2020-03-23 04:00:00 5.3 0 Calma 4 Sudeste 0 -- -- 95
2020-03-23 03:00:00 5.7 0 Calma 4 Este 0 -- -- 94
2020-03-23 02:00:00 6.1 2 Sudeste 5 Norte 0 -- -- 94
2020-03-23 01:00:00 6 5 Norte 6 Noroeste 0 -- -- 93
2020-03-23 00:00:00 7.5 2 Sur 4 Sudeste 0 -- -- 91
2020-03-22 23:00:00 8.2 0 Calma 6 Sur 0 -- -- 91
2020-03-22 22:00:00 8.6 0 Calma 6 Sur 0 -- -- 89
2020-03-22 21:00:00 9.1 2 Este 9 Sur 0 -- -- 85
2020-03-22 20:00:00 10.1 9 Sur 14 Sur 0 -- -- 79
2020-03-22 19:00:00 11.8 6 Sur 12 Sur 0 -- -- 78
2020-03-22 18:00:00 12.4 6 Sudoeste 17 Oeste 0 -- -- 69
2020-03-22 17:00:00 13.3 5 Sudoeste 17 Oeste 0 -- -- 66
2020-03-22 16:00:00 12.4 3 Sur 22 Noroeste 1 -- -- 72
2020-03-22 15:00:00 10.9 14 Oeste 30 Oeste 0 -- -- 74
2020-03-22 14:00:00 10.6 11 Norte 23 Norte 0.4 -- -- 84
2020-03-22 13:00:00 13.2 7 Noroeste 18 Norte 0 -- -- 68
2020-03-22 12:00:00 12.5 3 Sudoeste 10 Sudeste 0 -- -- 64
2020-03-22 11:00:00 11.4 2 Sudeste 7 Sudoeste 0 -- -- 79
2020-03-22 10:00:00 10.1 4 Sudoeste 9 Sudoeste 0 -- -- 83
2020-03-22 09:00:00 9.7 2 Noroeste 4 Oeste 0 -- -- 88
2020-03-22 08:00:00 7.4 4 Sudeste 6 Sudeste 0 -- -- 93
2020-03-22 07:00:00 8.1 0 Calma 4 Sudoeste 0 -- -- 94
2020-03-22 06:00:00 8 3 Sur 9 Sudeste 0 -- -- 94
2020-03-22 05:00:00 7.9 7 Sudeste 13 Sur 0.2 -- -- 94
2020-03-22 04:00:00 8.2 5 Sudeste 8 Sudeste 0.4 -- -- 94
2020-03-22 03:00:00 8 0 Calma 5 Nordeste 0.2 -- -- 93
2020-03-22 02:00:00 8.2 0 Calma 8 Sudoeste 0 -- -- 93
2020-03-22 01:00:00 8.1 5 Sudoeste 8 Este 0 -- -- 93
2020-03-22 00:00:00 7.9 6 Este 10 Este 0 -- -- 92
2020-03-21 23:00:00 7.6 3 Sudeste 8 Sudeste 0 -- -- 92
2020-03-21 22:00:00 7.8 5 Sudeste 14 Sudoeste 0.4 -- -- 91
2020-03-21 21:00:00 8 8 Sur 26 Sudoeste 0.2 -- -- 89
2020-03-21 20:00:00 8.4 10 Sur 33 Sur 2 -- -- 86
2020-03-21 19:00:00 9.8 15 Sur 28 Sur 0 -- -- 86
2020-03-21 18:00:00 9.6 22 Sudeste 30 Sur 0.4 -- -- 90
2020-03-21 17:00:00 9.7 15 Sur 38 Sudoeste 0.8 -- -- 86
2020-03-21 16:00:00 10.8 14 Sur 28 Sudoeste 0.6 -- -- 84
2020-03-21 15:00:00 11.9 13 Sudoeste 39 Sur 0.2 -- -- 81
2020-03-21 14:00:00 14.2 12 Sur 30 Sudoeste 0.2 -- -- 66
2020-03-21 13:00:00 13.7 10 Sur 26 Sur 0 -- -- 61
2020-03-21 12:00:00 13 5 Sudoeste 14 Sudoeste 0 -- -- 63
2020-03-21 11:00:00 12.1 9 Sudoeste 18 Sudoeste 0 -- -- 70
2020-03-21 10:00:00 11 6 Sudoeste 12 Sudoeste 0 -- -- 78
2020-03-21 09:00:00 9.4 3 Sur 6 Sudeste 0 -- -- 94
2020-03-21 08:00:00 7.7 5 Sudeste 8 Sudeste 0 -- -- 93
2020-03-21 07:00:00 7.8 5 Sudeste 6 Sudeste 0 -- -- 92
2020-03-21 06:00:00 8.5 3 Este 9 Sudeste 1 -- -- 93
2020-03-21 05:00:00 8.9 3 Sudoeste 22 Oeste 4.2 -- -- 92
2020-03-21 04:00:00 9.2 12 Sudoeste 41 Sudoeste 10.8 -- -- 91
2020-03-21 03:00:00 11.7 11 Sur 30 Sudeste 0.4 -- -- 83
2020-03-21 02:00:00 13 20 Sudeste 36 Este 0 -- -- 71
2020-03-21 01:00:00 12.6 23 Sudeste 37 Sudeste 0 -- -- 75
2020-03-21 00:00:00 12.4 12 Sur 29 Sur 0 -- -- 80
2020-03-20 23:00:00 12.2 26 Sur 40 Sur 0 -- -- 80
2020-03-20 22:00:00 12.4 19 Sur 35 Sur 0 -- -- 79
2020-03-20 21:00:00 12.3 20 Sur 38 Sur 0 -- -- 82
2020-03-20 20:00:00 12.5 21 Sur 37 Sur 0.2 -- -- 83
2020-03-20 19:00:00 15.4 26 Sur 39 Sur 0 -- -- 59
2020-03-20 18:00:00 16.5 22 Sur 34 Sur 0 -- -- 55
2020-03-20 17:00:00 17.4 23 Sur 38 Sur 0 -- -- 55
2020-03-20 16:00:00 18.2 21 Sur 34 Sur 0 -- -- 53
2020-03-20 15:00:00 17 17 Sur 39 Sur 0 -- -- 59
2020-03-20 14:00:00 15.8 27 Sur 43 Sur 0 -- -- 64
2020-03-20 13:00:00 15.2 29 Sur 41 Sur 0 -- -- 62
2020-03-20 12:00:00 15.4 27 Sur 44 Sur 0 -- -- 62
2020-03-20 11:00:00 14.5 29 Sur 44 Sur 0 -- -- 68
2020-03-20 10:00:00 12.7 23 Sur 37 Sur 0 -- -- 78
2020-03-20 09:00:00 12.1 22 Sur 32 Sur 0 -- -- 82
2020-03-20 08:00:00 11.2 15 Sudeste 30 Sudeste 0 -- -- 85
2020-03-20 07:00:00 11 18 Sudeste 34 Sudeste 0 -- -- 83
2020-03-20 06:00:00 10.9 21 Sudeste 32 Sudeste 0 -- -- 82
2020-03-20 05:00:00 10.8 16 Sur 29 Sur 0 -- -- 81
2020-03-20 04:00:00 10.9 16 Sudeste 27 Sudeste 0 -- -- 80
2020-03-20 03:00:00 11.7 21 Sur 36 Sur 0 -- -- 79
2020-03-20 02:00:00 12.3 21 Sur 33 Sudeste 0 -- -- 82
2020-03-20 01:00:00 12.6 23 Sur 40 Sur 0 -- -- 82
2020-03-20 00:00:00 12.4 24 Sur 39 Sudeste 0 -- -- 84
2020-03-19 23:00:00 12.3 22 Sur 49 Sudeste 0 -- -- 83
2020-03-19 22:00:00 12.2 24 Sur 42 Sur 0 -- -- 82
2020-03-19 21:00:00 12.3 20 Sur 34 Sur 0 -- -- 81
2020-03-19 20:00:00 12.9 22 Sur 37 Sur 0 -- -- 75
2020-03-19 19:00:00 13.7 26 Sur 39 Sur 0 -- -- 72
2020-03-19 18:00:00 14.5 26 Sur 49 Sur 0 -- -- 69
2020-03-19 17:00:00 15.5 29 Sur 47 Sur 0 -- -- 67
2020-03-19 16:00:00 15.7 31 Sur 46 Sur 0 -- -- 66
2020-03-19 15:00:00 15.7 32 Sur 48 Sur 0 -- -- 65
2020-03-19 14:00:00 15.9 32 Sur 46 Sudeste 0 -- -- 65
2020-03-19 13:00:00 15.6 33 Sudeste 47 Sur 0 -- -- 68
2020-03-19 12:00:00 15.2 28 Sur 41 Sur 0 -- -- 68
2020-03-19 11:00:00 14.8 21 Sur 32 Sur 0 -- -- 69
2020-03-19 10:00:00 13.2 15 Sudeste 26 Sudeste 0 -- -- 75
2020-03-19 09:00:00 12.2 13 Sudeste 23 Sudeste 0 -- -- 80
2020-03-19 08:00:00 11.7 15 Sudeste 23 Sudeste 0 -- -- 83
2020-03-19 07:00:00 11.6 15 Sudeste 25 Sur 0 -- -- 84
2020-03-19 06:00:00 11.5 13 Sudeste 28 Sur 0 -- -- 84
2020-03-19 05:00:00 12 18 Sur 30 Sur 0 -- -- 80
2020-03-19 04:00:00 12.4 16 Sur 33 Sur 0 -- -- 80
2020-03-19 03:00:00 12.3 21 Sur 37 Sur 0 -- -- 83
2020-03-19 02:00:00 12.3 23 Sur 39 Sur 0 -- -- 83
2020-03-19 01:00:00 12.7 22 Sur 41 Sur 0 -- -- 81
2020-03-19 00:00:00 12.7 22 Sur 40 Sur 0 -- -- 83
2020-03-18 23:00:00 12.7 30 Sur 46 Sur 0 -- -- 83
2020-03-18 22:00:00 12.7 27 Sur 41 Sur 0 -- -- 81
2020-03-18 21:00:00 13.3 13 Sur 31 Sur 0 -- -- 75
2020-03-18 20:00:00 14.3 19 Sur 32 Sur 0 -- -- 70
2020-03-18 19:00:00 15.1 23 Sur 42 Sur 0 -- -- 67
2020-03-18 18:00:00 16.8 30 Sur 45 Sur 0 -- -- 60
2020-03-18 17:00:00 18.1 28 Sur 44 Sur 0 -- -- 55
2020-03-18 16:00:00 19.6 27 Sur 41 Sur 0 -- -- 53
2020-03-18 15:00:00 19.7 26 Sur 41 Sur 0 -- -- 55
2020-03-18 14:00:00 19 26 Sur 44 Sur 0 -- -- 58
2020-03-18 13:00:00 18.3 27 Sur 40 Sur 0 -- -- 60
2020-03-18 12:00:00 17.5 25 Sur 38 Sur 0 -- -- 65
2020-03-18 11:00:00 15.9 26 Sur 37 Sur 0 -- -- 71
2020-03-18 10:00:00 14.8 20 Sur 28 Sur 0 -- -- 78
2020-03-18 09:00:00 12.8 16 Sur 23 Sudeste 0 -- -- 85
2020-03-18 08:00:00 11 13 Sudeste 22 Sudeste 0 -- -- 95
2020-03-18 07:00:00 7.2 3 Este 9 Sudeste 0 -- -- 93
2020-03-18 06:00:00 7.5 2 Sur 7 Sudoeste 0 -- -- 92
2020-03-18 05:00:00 7.7 3 Sudeste 8 Sudoeste 0 -- -- 92
2020-03-18 04:00:00 8.6 3 Nordeste 7 Nordeste 0 -- -- 92
2020-03-18 03:00:00 8.1 7 Sur 17 Sudoeste 0 -- -- 92
2020-03-18 02:00:00 8.3 0 Calma 10 Sudeste 0 -- -- 93
2020-03-18 01:00:00 6.8 6 Norte 12 Sudoeste 0 -- -- 91
2020-03-18 00:00:00 7 6 Sudoeste 12 Sur 0 -- -- 91
2020-03-17 23:00:00 7.5 0 Calma 7 Sudoeste 0 -- -- 86
2020-03-17 22:00:00 9.3 5 Este 9 Sudeste 0 -- -- 82
2020-03-17 21:00:00 10.6 2 Norte 8 Oeste 0 -- -- 77
2020-03-17 20:00:00 12.4 6 Oeste 15 Sudoeste 0 -- -- 68
2020-03-17 19:00:00 13 5 Sur 19 Sudeste 0 -- -- 63
2020-03-17 18:00:00 14 13 Sudeste 23 Sudeste 0 -- -- 52
2020-03-17 17:00:00 15.4 14 Sudeste 26 Sudeste 0 -- -- 46
2020-03-17 16:00:00 15.1 17 Sudeste 42 Este 0 -- -- 41
2020-03-17 15:00:00 15.5 20 Sudeste 43 Sudeste 0 -- -- 40
2020-03-17 14:00:00 14.7 32 Sudeste 46 Sudeste 0 -- -- 42
2020-03-17 13:00:00 13.2 22 Sudeste 38 Sudeste 0 -- -- 58
2020-03-17 12:00:00 9.6 27 Sudeste 46 Sudeste 0.2 -- -- 72
2020-03-17 11:00:00 9.8 24 Este 44 Este 0 -- -- 78
2020-03-17 10:00:00 7.6 8 Nordeste 12 Nordeste 0 -- -- 92
2020-03-17 09:00:00 6.9 5 Sudoeste 12 Nordeste 0 -- -- 94
2020-03-17 08:00:00 6.4 8 Norte 12 Norte 0 -- -- 93
2020-03-17 07:00:00 6.3 4 Norte 8 Norte 0 -- -- 92
2020-03-17 06:00:00 6.1 3 Noroeste 5 Noroeste 0 -- -- 90
2020-03-17 05:00:00 6.4 0 Calma 5 Nordeste 0.8 -- -- 90
2020-03-17 04:00:00 6.6 2 Sudoeste 8 Oeste 0.4 -- -- 87
2020-03-17 03:00:00 6.4 2 Sudoeste 10 Sudeste 0 -- -- 85
2020-03-17 02:00:00 6.7 2 Norte 4 Nordeste 0 -- -- 85
2020-03-17 01:00:00 6.4 4 Sudeste 8 Sudeste 0 -- -- 85
2020-03-17 00:00:00 6.4 3 Sur 10 Oeste 0 -- -- 82
2020-03-16 23:00:00 7.1 6 Sudoeste 19 Noroeste 0.2 -- -- 78
2020-03-16 22:00:00 8.4 10 Oeste 21 Oeste 0 -- -- 68
2020-03-16 21:00:00 8.9 3 Noroeste 10 Norte 0 -- -- 64
2020-03-16 20:00:00 9.1 9 Norte 34 Noroeste 0 -- -- 61
2020-03-16 19:00:00 10.7 12 Noroeste 24 Oeste 0 -- -- 46
2020-03-16 18:00:00 11.2 15 Noroeste 30 Oeste 0 -- -- 45
2020-03-16 17:00:00 11.7 19 Oeste 39 Oeste 0 -- -- 43
2020-03-16 16:00:00 13.4 23 Oeste 42 Oeste 0 -- -- 40
2020-03-16 15:00:00 13.1 23 Noroeste 42 Noroeste 0 -- -- 41
2020-03-16 14:00:00 12.3 24 Noroeste 47 Oeste 0 -- -- 43
2020-03-16 13:00:00 11.2 20 Noroeste 35 Noroeste 0 -- -- 44
2020-03-16 12:00:00 11 18 Noroeste 30 Oeste 0 -- -- 43
2020-03-16 11:00:00 10.1 6 Oeste 23 Noroeste 0 -- -- 53
2020-03-16 10:00:00 9.3 12 Norte 21 Norte 0 -- -- 53
2020-03-16 09:00:00 7.4 9 Norte 16 Norte 0 -- -- 64
2020-03-16 08:00:00 7.4 6 Nordeste 13 Norte 0 -- -- 68
2020-03-16 07:00:00 8.1 3 Norte 19 Noroeste 0 -- -- 68
2020-03-16 06:00:00 8.5 17 Noroeste 24 Noroeste 0 -- -- 72
2020-03-16 05:00:00 9.5 11 Noroeste 31 Noroeste 0 -- -- 76
2020-03-16 04:00:00 11.8 20 Oeste 36 Oeste 0 -- -- 82
2020-03-16 03:00:00 12.3 11 Sur 20 Sudoeste 0 -- -- 86
2020-03-16 02:00:00 12.7 12 Sudoeste 18 Sudoeste 0 -- -- 86
2020-03-16 01:00:00 12.5 12 Sudoeste 18 Sudoeste 0 -- -- 87
2020-03-16 00:00:00 12 10 Sudoeste 15 Sudoeste 0 -- -- 86
2020-03-15 23:00:00 12.6 10 Sudoeste 19 Sudoeste 0 -- -- 84
2020-03-15 22:00:00 13.3 13 Sudoeste 20 Sudoeste 0 -- -- 81
2020-03-15 21:00:00 13.6 7 Sur 14 Sur 0 -- -- 76
2020-03-15 20:00:00 14.9 13 Sur 21 Sur 0 -- -- 68
2020-03-15 19:00:00 16.9 11 Sur 28 Sur 0 -- -- 63
2020-03-15 18:00:00 17.6 17 Sur 27 Sur 0 -- -- 61
2020-03-15 17:00:00 18.2 17 Sur 24 Sur 0 -- -- 55
2020-03-15 16:00:00 19.6 15 Sur 27 Sur 0 -- -- 51
2020-03-15 15:00:00 18.7 23 Sur 38 Sur 0 -- -- 55
2020-03-15 14:00:00 16.5 26 Sur 41 Sur 0 -- -- 63
2020-03-15 13:00:00 15.4 26 Sur 44 Sur 0 -- -- 72
2020-03-15 12:00:00 16 27 Sur 35 Sur 0 -- -- 67
2020-03-15 11:00:00 14.7 22 Sur 40 Sudeste 0 -- -- 71
2020-03-15 10:00:00 14.1 24 Sur 37 Sur 0 -- -- 76
2020-03-15 09:00:00 12.3 6 Sur 14 Sur 0 -- -- 87
2020-03-15 08:00:00 11.5 5 Sudoeste 24 Sur 0 -- -- 86
2020-03-15 07:00:00 11.5 10 Sudoeste 19 Sur 0 -- -- 88
2020-03-15 06:00:00 11.9 12 Sur 28 Sudoeste 0 -- -- 87
2020-03-15 05:00:00 12 18 Sur 35 Sur 0 -- -- 88
2020-03-15 04:00:00 11.7 19 Sur 33 Sur 0 -- -- 88
2020-03-15 03:00:00 11.3 12 Sur 19 Sur 0 -- -- 85
2020-03-15 02:00:00 11.5 9 Sudoeste 15 Sudoeste 0 -- -- 82
2020-03-15 01:00:00 11.6 5 Sudoeste 13 Sudoeste 0 -- -- 84
2020-03-15 00:00:00 11.3 5 Sur 13 Sur 0 -- -- 81
2020-03-14 23:00:00 11.7 7 Sur 12 Sudoeste 0 -- -- 80
2020-03-14 22:00:00 13 8 Sur 13 Sur 0 -- -- 76
2020-03-14 21:00:00 14.7 6 Sur 13 Sur 0 -- -- 68
2020-03-14 20:00:00 16.3 11 Sur 17 Sur 0 -- -- 62
2020-03-14 19:00:00 19.1 13 Sur 18 Sur 0 -- -- 53
2020-03-14 18:00:00 22.1 13 Sur 23 Sur 0 -- -- 43
2020-03-14 17:00:00 23.5 9 Sur 20 Sur 0 -- -- 41
2020-03-14 16:00:00 24 6 Sur 16 Sudeste 0 -- -- 38
2020-03-14 15:00:00 23.1 5 Sudoeste 17 Sudoeste 0 -- -- 41
2020-03-14 14:00:00 22.3 6 Sur 15 Sudeste 0 -- -- 44
2020-03-14 13:00:00 20.3 5 Oeste 13 Oeste 0 -- -- 53
2020-03-14 12:00:00 18.6 4 Oeste 10 Sudoeste 0 -- -- 61
2020-03-14 11:00:00 15.9 5 Sudoeste 11 Sudoeste 0 -- -- 72
2020-03-14 10:00:00 12.5 4 Oeste 7 Sudoeste 0 -- -- 85
2020-03-14 09:00:00 9.1 3 Sur 6 Sur 0 -- -- 94
2020-03-14 08:00:00 6.4 0 Calma 4 Sur 0 -- -- 91
2020-03-14 07:00:00 7 0 Calma 4 Noroeste 0 -- -- 91
2020-03-14 06:00:00 7.5 4 Sur 8 Norte 0 -- -- 89
2020-03-14 05:00:00 7.8 3 Sur 8 Sur 0 -- -- 87
2020-03-14 04:00:00 8.1 2 Sur 5 Sur 0 -- -- 85
2020-03-14 03:00:00 9.1 0 Calma 6 Nordeste 0 -- -- 82
2020-03-14 02:00:00 10 0 Calma 5 Sur 0 -- -- 80
2020-03-14 01:00:00 11.3 3 Sur 9 Sur 0 -- -- 77
2020-03-14 00:00:00 12 7 Sur 10 Sur 0 -- -- 74
2020-03-13 23:00:00 14.1 6 Sur 10 Sudoeste 0 -- -- 69
2020-03-13 22:00:00 15.2 6 Sur 9 Sur 0 -- -- 67
2020-03-13 21:00:00 16.8 0 Calma 5 Noroeste 0 -- -- 62
2020-03-13 20:00:00 17.6 4 Noroeste 10 Noroeste 0 -- -- 59
2020-03-13 19:00:00 19.8 8 Noroeste 15 Noroeste 0 -- -- 51
2020-03-13 18:00:00 21.1 13 Noroeste 21 Noroeste 0 -- -- 46
2020-03-13 17:00:00 21.5 13 Noroeste 24 Noroeste 0 -- -- 40
2020-03-13 16:00:00 22.2 13 Noroeste 21 Noroeste 0 -- -- 40
2020-03-13 15:00:00 21.8 8 Noroeste 20 Noroeste 0 -- -- 38
2020-03-13 14:00:00 20.8 9 Norte 17 Noroeste 0 -- -- 49
2020-03-13 13:00:00 19.1 9 Norte 18 Nordeste 0 -- -- 53
2020-03-13 12:00:00 17.8 11 Norte 19 Noroeste 0 -- -- 60
2020-03-13 11:00:00 16.7 9 Norte 13 Nordeste 0 -- -- 66
2020-03-13 10:00:00 13.1 3 Nordeste 7 Norte 0 -- -- 78
2020-03-13 09:00:00 8.7 0 Calma 3 Sur 0 -- -- 90
2020-03-13 08:00:00 7.3 0 Calma 4 Sudoeste 0 -- -- 90
2020-03-13 07:00:00 8 0 Calma 3 Norte 0 -- -- 89
2020-03-13 06:00:00 7.7 2 Noroeste 3 Noroeste 0 -- -- 87
2020-03-13 05:00:00 9.2 0 Calma -- -- 0 -- -- 89
2020-03-13 04:00:00 10.2 0 Calma 5 Norte 0 -- -- 87
2020-03-13 03:00:00 11 3 Norte 4 Norte 0 -- -- 81
2020-03-13 02:00:00 12.6 0 Calma 9 Este 0 -- -- 79
2020-03-13 01:00:00 13.3 3 Norte 6 Norte 0 -- -- 76
2020-03-13 00:00:00 14.7 3 Este 10 Este 0 -- -- 73
2020-03-12 23:00:00 15.7 4 Nordeste 7 Nordeste 0 -- -- 70
2020-03-12 22:00:00 16.7 5 Nordeste 8 Noroeste 0 -- -- 67
2020-03-12 21:00:00 17.9 6 Norte 18 Noroeste 0 -- -- 66
2020-03-12 20:00:00 20.7 6 Norte 10 Norte 0 -- -- 52
2020-03-12 19:00:00 23.2 6 Noroeste 19 Oeste 0 -- -- 44
2020-03-12 18:00:00 25.8 12 Oeste 20 Oeste 0 -- -- 36
2020-03-12 17:00:00 27.7 13 Sudoeste 21 Sur 0 -- -- 27
2020-03-12 16:00:00 28.8 8 Sur 22 Sur 0 -- -- 22
2020-03-12 15:00:00 28.4 15 Sur 30 Sur 0 -- -- 22
2020-03-12 14:00:00 27.1 18 Sur 33 Sur 0 -- -- 25
2020-03-12 13:00:00 26.7 24 Sur 36 Sur 0 -- -- 25
2020-03-12 12:00:00 25.9 19 Sur 33 Sur 0 -- -- 27
2020-03-12 11:00:00 23.8 24 Sur 35 Sur 0 -- -- 31
2020-03-12 10:00:00 21.3 12 Sur 20 Sur 0 -- -- 38
2020-03-12 09:00:00 16.4 5 Sur 15 Sur 0 -- -- 47
2020-03-12 08:00:00 13.6 6 Sur 13 Sudoeste 0 -- -- 52
2020-03-12 07:00:00 14.4 5 Oeste 20 Sur 0 -- -- 48
2020-03-12 06:00:00 15.6 15 Sur 26 Sur 0 -- -- 45
2020-03-12 05:00:00 16.2 17 Sur 32 Sur 0 -- -- 44
2020-03-12 04:00:00 15.9 17 Sur 30 Sur 0 -- -- 46
2020-03-12 03:00:00 16.2 23 Sur 29 Sur 0 -- -- 46
2020-03-12 02:00:00 12.8 9 Sur 17 Oeste 0 -- -- 57
2020-03-12 01:00:00 12.5 0 Calma 6 Norte 0 -- -- 60
2020-03-12 00:00:00 12.2 2 Sudeste 11 Sudoeste 0 -- -- 63
2020-03-11 23:00:00 15.8 2 Nordeste 5 Norte 0 -- -- 47
2020-03-11 22:00:00 15.4 3 Norte 11 Sur 0 -- -- 49
2020-03-11 21:00:00 19.5 6 Sudeste 16 Sur 0 -- -- 38
2020-03-11 20:00:00 21.6 10 Sur 19 Sur 0 -- -- 34
2020-03-11 19:00:00 23.8 14 Sur 23 Sur 0 -- -- 30
2020-03-11 18:00:00 26.1 12 Sur 25 Sur 0 -- -- 27
2020-03-11 17:00:00 26.1 18 Sur 33 Sur 0 -- -- 28
2020-03-11 16:00:00 26.8 25 Sur 40 Sur 0 -- -- 26
2020-03-11 15:00:00 27.3 26 Sur 43 Sur 0 -- -- 26
2020-03-11 14:00:00 27 30 Sur 44 Sur 0 -- -- 27
2020-03-11 13:00:00 26.1 29 Sur 43 Sur 0 -- -- 29
2020-03-11 12:00:00 24.9 27 Sur 41 Sur 0 -- -- 31
2020-03-11 11:00:00 19.4 5 Sudoeste 8 Oeste 0 -- -- 42
2020-03-11 10:00:00 14.7 3 Sur 6 Sudoeste 0 -- -- 54
2020-03-11 09:00:00 10.9 2 Sur 5 Oeste 0 -- -- 66
2020-03-11 08:00:00 6.2 3 Noroeste 6 Sudoeste 0 -- -- 81
2020-03-11 07:00:00 6.6 4 Sur 6 Sur 0 -- -- 80
2020-03-11 06:00:00 7.6 3 Sudeste 5 Sudeste 0 -- -- 73
2020-03-11 05:00:00 8.1 2 Sudeste 3 Sudeste 0 -- -- 72
2020-03-11 04:00:00 7.9 4 Sur 8 Sur 0 -- -- 70
2020-03-11 03:00:00 9.3 2 Sudoeste 8 Sur 0 -- -- 64
2020-03-11 02:00:00 10.6 8 Sudoeste 12 Sur 0 -- -- 60
2020-03-11 01:00:00 10 6 Sur 12 Sudoeste 0 -- -- 61
2020-03-11 00:00:00 11.5 10 Sudoeste 15 Sudoeste 0 -- -- 59
2020-03-10 23:00:00 12 8 Sur 13 Sur 0 -- -- 57
2020-03-10 22:00:00 12.9 10 Sur 14 Sur 0 -- -- 55
2020-03-10 21:00:00 14.6 7 Sur 19 Sudoeste 0 -- -- 53
2020-03-10 20:00:00 16.4 8 Sur 17 Sur 0 -- -- 49
2020-03-10 19:00:00 19.1 12 Sur 20 Sur 0 -- -- 42
2020-03-10 18:00:00 21.6 15 Sur 24 Sur 0 -- -- 34
2020-03-10 17:00:00 23 15 Sur 22 Sur 0 -- -- 31
2020-03-10 16:00:00 23.6 14 Sur 29 Sur 0 -- -- 30
2020-03-10 15:00:00 23.9 16 Sur 31 Sur 0 -- -- 30
2020-03-10 14:00:00 23.5 20 Sur 34 Sur 0 -- -- 30
2020-03-10 13:00:00 23.3 18 Sur 30 Sur 0 -- -- 30
2020-03-10 12:00:00 20.3 5 Oeste 10 Sudoeste 0 -- -- 38
2020-03-10 11:00:00 17.4 3 Oeste 8 Sudoeste 0 -- -- 47
2020-03-10 10:00:00 13.8 2 Sur 10 Sudoeste 0 -- -- 59
2020-03-10 09:00:00 9.1 7 Sudoeste 13 Nordeste 0 -- -- 74
2020-03-10 08:00:00 5.9 10 Norte 13 Norte 0 -- -- 81
2020-03-10 07:00:00 7.3 3 Noroeste 5 Noroeste 0 -- -- 78
2020-03-10 06:00:00 6.9 6 Sudoeste 11 Sudoeste 0 -- -- 77
2020-03-10 05:00:00 7.7 6 Sur 13 Sur 0 -- -- 73
2020-03-10 04:00:00 9.7 0 Calma 14 Nordeste 0 -- -- 64
2020-03-10 03:00:00 11 11 Nordeste 15 Nordeste 0 -- -- 60
2020-03-10 02:00:00 10.9 8 Norte 15 Norte 0 -- -- 60
2020-03-10 01:00:00 10.9 14 Norte 19 Nordeste 0 -- -- 61
2020-03-10 00:00:00 11.7 9 Norte 12 Noroeste 0 -- -- 57
2020-03-09 23:00:00 13.1 3 Norte 9 Norte 0 -- -- 54
2020-03-09 22:00:00 12.7 0 Calma 7 Noroeste 0 -- -- 55
2020-03-09 21:00:00 13.3 7 Noroeste 12 Oeste 0 -- -- 53
2020-03-09 20:00:00 15.4 10 Noroeste 15 Noroeste 0 -- -- 48
2020-03-09 19:00:00 18.1 12 Norte 26 Norte 0 -- -- 41
2020-03-09 18:00:00 19.3 16 Norte 26 Norte 0 -- -- 36
2020-03-09 17:00:00 20 15 Norte 28 Norte 0 -- -- 32
2020-03-09 16:00:00 20.2 18 Norte 27 Noroeste 0 -- -- 26
2020-03-09 15:00:00 20.4 13 Norte 23 Norte 0 -- -- 31
2020-03-09 14:00:00 19.7 11 Norte 19 Noroeste 0 -- -- 27
2020-03-09 13:00:00 18.5 3 Oeste 12 Noroeste 0 -- -- 39
2020-03-09 12:00:00 17.1 8 Norte 18 Norte 0 -- -- 45
2020-03-09 11:00:00 15.7 11 Norte 18 Noroeste 0 -- -- 51
2020-03-09 10:00:00 10.6 0 Calma 4 Sudoeste 0 -- -- 66
2020-03-09 09:00:00 6.2 2 Sudoeste 6 Sudoeste 0 -- -- 80
2020-03-09 08:00:00 3.5 2 Sudoeste 3 Sudoeste 0 -- -- 83
2020-03-09 07:00:00 4.1 0 Calma 8 Norte 0 -- -- 81
2020-03-09 06:00:00 5.5 2 Sur 6 Sudoeste 0 -- -- 78
2020-03-09 05:00:00 6.3 0 Calma 4 Oeste 0 -- -- 72
2020-03-09 04:00:00 7.6 0 Calma 5 Norte 0 -- -- 67
2020-03-09 03:00:00 9.1 3 Sudeste 5 Sudeste 0 -- -- 60
2020-03-09 02:00:00 11.4 4 Norte 9 Oeste 0 -- -- 51
2020-03-09 01:00:00 9.9 3 Sudeste 15 Norte 0 -- -- 58
2020-03-09 00:00:00 12 3 Nordeste 6 Este 0 -- -- 54
2020-03-08 23:00:00 12 0 Calma 12 Sudeste 0 -- -- 53
2020-03-08 22:00:00 13.8 0 Calma 5 Oeste 0 -- -- 54
2020-03-08 21:00:00 15.2 2 Oeste 7 Noroeste 0 -- -- 40
2020-03-08 20:00:00 16.9 4 Noroeste 12 Noroeste 0 -- -- 35
2020-03-08 19:00:00 18.7 11 Noroeste 22 Noroeste 0 -- -- 32
2020-03-08 18:00:00 21.4 13 Noroeste 22 Noroeste 0 -- -- 20
2020-03-08 17:00:00 22.1 15 Noroeste 25 Noroeste 0 -- -- 20
2020-03-08 16:00:00 23.1 9 Oeste 20 Noroeste 0 -- -- 22
2020-03-08 15:00:00 22.3 8 Sudoeste 13 Sudoeste 0 -- -- 27
2020-03-08 14:00:00 20.7 7 Sudoeste 12 Oeste 0 -- -- 32
2020-03-08 13:00:00 18.4 6 Oeste 12 Oeste 0 -- -- 37
2020-03-08 12:00:00 15.8 5 Sudoeste 9 Sudoeste 0 -- -- 48
2020-03-08 11:00:00 12.4 4 Oeste 8 Sudoeste 0 -- -- 52
2020-03-08 10:00:00 8.9 3 Sudoeste 5 Sur 0 -- -- 64
2020-03-08 09:00:00 4.1 0 Calma 5 Sur 0 -- -- 88
2020-03-08 08:00:00 0.6 4 Sudoeste 5 Sudoeste 0 -- -- 90
2020-03-08 07:00:00 0.2 2 Sudoeste 7 Norte 0 -- -- 87
2020-03-08 06:00:00 2 0 Calma 4 Sur 0 -- -- 88
2020-03-08 05:00:00 2.2 0 Calma 3 Oeste 0 -- -- 85
2020-03-08 04:00:00 3 0 Calma 5 Sudeste 0 -- -- 82
2020-03-08 03:00:00 4.7 2 Este 6 Sudeste 0 -- -- 80
2020-03-08 02:00:00 4.6 3 Oeste 8 Este 0 -- -- 75
2020-03-08 01:00:00 6.4 4 Norte 6 Norte 0 -- -- 64
2020-03-08 00:00:00 7.6 0 Calma 8 Nordeste 0 -- -- 62
2020-03-07 23:00:00 8.6 7 Nordeste 11 Norte 0 -- -- 55
2020-03-07 22:00:00 10 2 Norte 7 Noroeste 0 -- -- 55
2020-03-07 21:00:00 12.2 4 Noroeste 9 Nordeste 0 -- -- 43
2020-03-07 20:00:00 13.4 9 Nordeste 23 Nordeste 0 -- -- 40
2020-03-07 19:00:00 14.9 11 Norte 24 Norte 0 -- -- 37
2020-03-07 18:00:00 16.7 17 Norte 28 Norte 0 -- -- 33
2020-03-07 17:00:00 17.5 17 Norte 28 Norte 0 -- -- 33
2020-03-07 16:00:00 17.3 13 Norte 27 Norte 0 -- -- 32
2020-03-07 15:00:00 18 13 Nordeste 30 Norte 0 -- -- 31
2020-03-07 14:00:00 17.8 12 Norte 40 Nordeste 0 -- -- 32
2020-03-07 13:00:00 16.1 18 Nordeste 31 Nordeste 0 -- -- 31
2020-03-07 12:00:00 15.1 13 Nordeste 26 Nordeste 0 -- -- 34
2020-03-07 11:00:00 12.8 8 Nordeste 17 Nordeste 0 -- -- 40
2020-03-07 10:00:00 6.8 2 Noroeste 4 Noroeste 0 -- -- 76
2020-03-07 09:00:00 3 2 Noroeste 4 Nordeste 0 -- -- 90
2020-03-07 08:00:00 1.3 0 Calma 4 Norte 0 -- -- 88
2020-03-07 07:00:00 3 0 Calma 5 Sur 0 -- -- 88
2020-03-07 06:00:00 3.3 0 Calma 5 Norte 0 -- -- 84
2020-03-07 05:00:00 5.2 3 Nordeste 8 Este 0 -- -- 76
2020-03-07 04:00:00 4.1 2 Sudeste 11 Norte 0 -- -- 81
2020-03-07 03:00:00 3 7 Norte 10 Norte 0 -- -- 81
2020-03-07 02:00:00 4.6 2 Norte 12 Noroeste 0 -- -- 79
2020-03-07 01:00:00 6.2 0 Calma 6 Norte 0 -- -- 73
2020-03-07 00:00:00 8.5 6 Nordeste 9 Norte 0 -- -- 63
2020-03-06 23:00:00 8.7 6 Norte 13 Norte 0 -- -- 62
2020-03-06 22:00:00 10.1 10 Norte 19 Norte 0 -- -- 57
2020-03-06 21:00:00 11.3 14 Norte 19 Norte 0 -- -- 52
2020-03-06 20:00:00 12.7 13 Norte 29 Noroeste 0 -- -- 47
2020-03-06 19:00:00 14.5 21 Noroeste 36 Noroeste 0 -- -- 43
2020-03-06 18:00:00 15.8 22 Noroeste 45 Noroeste 0 -- -- 42
2020-03-06 17:00:00 15.8 33 Noroeste 50 Noroeste 0 -- -- 43
2020-03-06 16:00:00 15.3 28 Noroeste 44 Noroeste 0 -- -- 47
2020-03-06 15:00:00 14.9 26 Noroeste 50 Noroeste 0 -- -- 48
2020-03-06 14:00:00 14 22 Noroeste 38 Noroeste 0 -- -- 55
2020-03-06 13:00:00 12.8 24 Noroeste 37 Noroeste 0 -- -- 63
2020-03-06 12:00:00 11.9 19 Noroeste 38 Oeste 0 -- -- 67
2020-03-06 11:00:00 11.7 22 Noroeste 38 Noroeste 0 -- -- 71
2020-03-06 10:00:00 8.9 19 Noroeste 29 Noroeste 0 -- -- 81
2020-03-06 09:00:00 7.4 3 Nordeste 9 Norte 0 -- -- 90
2020-03-06 08:00:00 4.7 6 Norte 15 Noroeste 0 -- -- 92
2020-03-06 07:00:00 5.2 8 Norte 14 Noroeste 0 -- -- 90
2020-03-06 06:00:00 5.9 7 Noroeste 23 Noroeste 0 -- -- 86
2020-03-06 05:00:00 7.1 16 Noroeste 29 Noroeste 0 -- -- 84
2020-03-06 04:00:00 7.8 18 Noroeste 30 Noroeste 0 -- -- 79
2020-03-06 03:00:00 8.6 18 Noroeste 30 Noroeste 0 -- -- 77
2020-03-06 02:00:00 8.7 15 Noroeste 26 Noroeste 0 -- -- 76
2020-03-06 01:00:00 9.7 19 Noroeste 36 Noroeste 0 -- -- 72
2020-03-06 00:00:00 10.9 21 Noroeste 33 Noroeste 0 -- -- 68
2020-03-05 23:00:00 11.6 17 Noroeste 29 Noroeste 0 -- -- 65
2020-03-05 22:00:00 12.5 17 Noroeste 28 Noroeste 0 -- -- 63
2020-03-05 21:00:00 12.6 10 Noroeste 21 Noroeste 0 -- -- 64
2020-03-05 20:00:00 13 15 Noroeste 32 Noroeste 0 -- -- 62
2020-03-05 19:00:00 14 20 Noroeste 31 Noroeste 0 -- -- 72
2020-03-05 18:00:00 14.7 23 Oeste 35 Oeste 0 -- -- 71
2020-03-05 17:00:00 14.7 18 Oeste 31 Oeste 0 -- -- 75
2020-03-05 16:00:00 13.3 18 Oeste 27 Oeste 0 -- -- 84
2020-03-05 15:00:00 13.1 14 Noroeste 32 Noroeste 0 -- -- 86
2020-03-05 14:00:00 14.5 17 Noroeste 36 Oeste 0 -- -- 74
2020-03-05 13:00:00 15.2 24 Oeste 41 Oeste 0 -- -- 71
2020-03-05 12:00:00 15.5 17 Noroeste 33 Oeste 0 -- -- 70
2020-03-05 11:00:00 14.2 4 Noroeste 8 Oeste 0 -- -- 73
2020-03-05 10:00:00 10 4 Sudoeste 5 Sudoeste 0 -- -- 87
2020-03-05 09:00:00 6.6 0 Calma 4 Noroeste 0 -- -- 94
2020-03-05 08:00:00 4.5 2 Sudeste 4 Sudeste 0 -- -- 94
2020-03-05 07:00:00 4.5 0 Calma 3 Norte 0 -- -- 93
2020-03-05 06:00:00 5.4 0 Calma 4 Sudeste 0 -- -- 93
2020-03-05 05:00:00 5.7 2 Sur 4 Sur 0 -- -- 92
2020-03-05 04:00:00 5.7 3 Norte 4 Norte 0 -- -- 90
2020-03-05 03:00:00 7.1 3 Noroeste 4 Noroeste 0 -- -- 88
2020-03-05 02:00:00 9.3 0 Calma 2 Nordeste 0 -- -- 84
2020-03-05 01:00:00 10.2 0 Calma 3 Norte 0 -- -- 84
2020-03-05 00:00:00 10.5 2 Sudeste 6 Noroeste 0 -- -- 80